createdAt,value
2024-05-09T00:01:54.692Z,97023.84
2024-05-09T00:04:43.185Z,97024.22
2024-05-09T00:07:31.595Z,97015.75
2024-05-09T00:10:28.794Z,97019.22
2024-05-09T00:13:23.389Z,97013.50
2024-05-09T00:16:14.480Z,97022.81
2024-05-09T00:19:03.048Z,97011.41
2024-05-09T00:21:51.572Z,97015.75
2024-05-09T00:24:39.856Z,97007.84
2024-05-09T00:27:28.368Z,96995.06
2024-05-09T00:30:24.363Z,97001.34
2024-05-09T00:33:22.721Z,96987.38
2024-05-09T00:36:11.041Z,96993.72
2024-05-09T00:38:59.353Z,97001.28
2024-05-09T00:41:47.974Z,96991.66
2024-05-09T00:44:36.495Z,96982.44
2024-05-09T00:47:25.105Z,96982.75
2024-05-09T00:50:22.718Z,96982.44
2024-05-09T00:53:19.169Z,96976.78
2024-05-09T00:56:08.260Z,96982.75
2024-05-09T00:58:57.680Z,96979.28
2024-05-09T01:01:46.282Z,96974.72
2024-05-09T01:04:34.748Z,96977.47
2024-05-09T01:07:26.767Z,96975.38
2024-05-09T01:10:21.209Z,96973.75
2024-05-09T01:13:15.936Z,96971.41
2024-05-09T01:16:04.324Z,96975.78
2024-05-09T01:18:53.244Z,96976.34
2024-05-09T01:21:43.391Z,96970.78
2024-05-09T01:24:34.509Z,96975.13
2024-05-09T01:27:24.682Z,96978.03
2024-05-09T01:30:17.423Z,96971.16
2024-05-09T01:33:11.335Z,96981.56
2024-05-09T01:36:00.961Z,96981.13
2024-05-09T01:38:49.613Z,96979.50
2024-05-09T01:41:40.658Z,96978.00
2024-05-09T01:44:29.235Z,96974.16
2024-05-09T01:47:17.855Z,96976.94
2024-05-09T01:50:09.138Z,96975.81
2024-05-09T01:52:59.378Z,96975.47
2024-05-09T01:55:47.983Z,96976.03
2024-05-09T01:58:39.233Z,96969.91
2024-05-09T02:01:27.928Z,96982.06
2024-05-09T02:04:16.764Z,96975.13
2024-05-09T02:07:05.004Z,96982.19
2024-05-09T02:09:54.546Z,96972.50
2024-05-09T02:12:43.089Z,96975.88
2024-05-09T02:15:34.322Z,96967.41
2024-05-09T02:18:22.683Z,96967.84
2024-05-09T02:21:11.788Z,96974.44
2024-05-09T02:24:00.316Z,96969.72
2024-05-09T02:26:48.295Z,96963.72
2024-05-09T02:29:37.610Z,96971.56
2024-05-09T02:32:28.716Z,96973.75
2024-05-09T02:35:17.134Z,96970.97
2024-05-09T02:38:05.667Z,96981.59
2024-05-09T02:40:51.327Z,96979.00
2024-05-09T02:43:39.919Z,96975.06
2024-05-09T02:46:25.918Z,96979.56
2024-05-09T02:49:17.503Z,96980.91
2024-05-09T02:52:03.047Z,96972.75
2024-05-09T02:54:51.635Z,96981.94
2024-05-09T02:57:36.998Z,96983.00
2024-05-09T03:00:34.472Z,96983.44
2024-05-09T03:03:24.829Z,96987.19
2024-05-09T03:06:15.980Z,96988.66
2024-05-09T03:09:04.907Z,96988.69
2024-05-09T03:11:53.360Z,96987.94
2024-05-09T03:14:39.397Z,96993.63
2024-05-09T03:17:28.065Z,96993.50
2024-05-09T03:20:20.567Z,96997.06
2024-05-09T03:23:15.284Z,96998.22
2024-05-09T03:26:00.883Z,96998.59
2024-05-09T03:28:49.444Z,97006.97
2024-05-09T03:31:35.552Z,97000.53
2024-05-09T03:34:24.017Z,96999.63
2024-05-09T03:37:12.440Z,97001.75
2024-05-09T03:40:05.587Z,97007.88
2024-05-09T03:42:55.603Z,97001.13
2024-05-09T03:45:45.173Z,97015.44
2024-05-09T03:48:34.962Z,97002.00
2024-05-09T03:51:23.231Z,97015.38
2024-05-09T03:54:09.157Z,97006.19
2024-05-09T03:57:00.275Z,97012.81
2024-05-09T03:59:46.225Z,97009.91
2024-05-09T04:02:34.495Z,97018.91
2024-05-09T04:05:20.396Z,97013.47
2024-05-09T04:08:09.656Z,97018.66
2024-05-09T04:10:55.423Z,97018.53
2024-05-09T04:13:46.509Z,97028.47
2024-05-09T04:16:32.598Z,97027.72
2024-05-09T04:19:21.114Z,97034.47
2024-05-09T04:22:10.079Z,97024.38
2024-05-09T04:24:55.990Z,97025.56
2024-05-09T04:27:44.550Z,97024.03
2024-05-09T04:30:38.542Z,97026.06
2024-05-09T04:33:29.484Z,97026.69
2024-05-09T04:36:15.572Z,97032.38
2024-05-09T04:39:04.268Z,97032.66
2024-05-09T04:41:50.121Z,97029.88
2024-05-09T04:44:38.753Z,97042.75
2024-05-09T04:47:27.429Z,97036.47
2024-05-09T04:50:24.629Z,97042.03
2024-05-09T04:53:18.894Z,97041.38
2024-05-09T04:56:05.349Z,97049.56
2024-05-09T04:58:53.975Z,97050.88
2024-05-09T05:01:39.804Z,97051.00
2024-05-09T05:04:31.232Z,97067.00
2024-05-09T05:07:17.234Z,97067.59
2024-05-09T05:10:05.988Z,97068.84
2024-05-09T05:13:09.973Z,97074.81
2024-05-09T05:15:58.743Z,97071.09
2024-05-09T05:18:44.654Z,97072.91
2024-05-09T05:21:35.557Z,97061.72
2024-05-09T05:24:21.278Z,97067.19
2024-05-09T05:27:09.897Z,97080.34
2024-05-09T05:29:55.862Z,97077.88
2024-05-09T05:32:44.646Z,97087.66
2024-05-09T05:35:30.693Z,97083.34
2024-05-09T05:38:24.808Z,97079.81
2024-05-09T05:41:13.498Z,97082.81
2024-05-09T05:44:02.398Z,97087.72
2024-05-09T05:46:48.320Z,97088.59
2024-05-09T05:49:37.064Z,97087.72
2024-05-09T05:52:23.022Z,97089.09
2024-05-09T05:55:14.007Z,97085.94
2024-05-09T05:58:00.721Z,97090.28
2024-05-09T06:00:49.250Z,97089.94
2024-05-09T06:03:35.454Z,97095.28
2024-05-09T06:06:23.997Z,97096.28
2024-05-09T06:09:10.024Z,97096.19
2024-05-09T06:12:01.407Z,97092.03
2024-05-09T06:14:47.191Z,97090.28
2024-05-09T06:17:35.445Z,97096.25
2024-05-09T06:20:31.520Z,97096.38
2024-05-09T06:23:24.018Z,97102.47
2024-05-09T06:26:10.360Z,97097.28
2024-05-09T06:29:03.635Z,97087.22
2024-05-09T06:31:49.688Z,97101.63
2024-05-09T06:34:38.282Z,97099.53
2024-05-09T06:37:24.296Z,97093.47
2024-05-09T06:40:17.453Z,97092.25
2024-05-09T06:43:03.910Z,97089.66
2024-05-09T06:45:55.230Z,97088.69
2024-05-09T06:48:42.476Z,97084.69
2024-05-09T06:51:31.202Z,97088.78
2024-05-09T06:54:18.362Z,97087.34
2024-05-09T06:57:07.295Z,97086.81
2024-05-09T06:59:53.083Z,97094.03
2024-05-09T07:02:44.557Z,97089.63
2024-05-09T07:05:30.327Z,97085.94
2024-05-09T07:08:19.494Z,97092.25
2024-05-09T07:11:05.447Z,97085.41
2024-05-09T07:13:53.871Z,97088.00
2024-05-09T07:16:39.768Z,97084.66
2024-05-09T07:19:31.036Z,97079.78
2024-05-09T07:22:16.930Z,97088.00
2024-05-09T07:25:05.459Z,97085.53
2024-05-09T07:27:51.293Z,97094.03
2024-05-09T07:30:39.967Z,97094.72
2024-05-09T07:33:26.334Z,97085.56
2024-05-09T07:36:17.301Z,97083.06
2024-05-09T07:39:02.987Z,97082.69
2024-05-09T07:41:51.630Z,97090.59
2024-05-09T07:44:37.335Z,97085.09
2024-05-09T07:48:56.946Z,97089.22
2024-05-09T07:56:15.168Z,97084.50
2024-05-09T07:59:03.940Z,97085.25
2024-05-09T08:01:50.162Z,97074.19
2024-05-09T08:04:38.772Z,97089.63
2024-05-09T08:07:24.708Z,97090.03
2024-05-09T08:10:21.914Z,97088.91
2024-05-09T08:13:12.999Z,97084.66
2024-05-09T08:15:59.072Z,97076.56
2024-05-09T08:18:48.033Z,97089.94
2024-05-09T08:21:36.288Z,97084.06
2024-05-09T08:24:22.206Z,97095.06
2024-05-09T08:27:13.213Z,97086.19
2024-05-09T08:29:59.147Z,97097.19
2024-05-09T08:32:48.322Z,97090.38
2024-05-09T08:35:34.873Z,97090.88
2024-05-09T08:38:23.491Z,97092.81
2024-05-09T08:41:09.611Z,97098.59
2024-05-09T08:44:00.799Z,97091.44
2024-05-09T08:46:47.805Z,97083.94
2024-05-09T08:49:37.660Z,97087.34
2024-05-09T08:52:26.213Z,97089.34
2024-05-09T08:55:12.257Z,97081.47
2024-05-09T08:58:01.428Z,97082.56
2024-05-09T09:00:50.032Z,97082.44
2024-05-09T09:03:39.836Z,97086.69
2024-05-09T09:06:25.951Z,97083.50
2024-05-09T09:09:14.901Z,97075.94
2024-05-09T09:12:00.891Z,97083.72
2024-05-09T09:14:49.075Z,97073.13
2024-05-09T09:17:38.313Z,97074.50
2024-05-09T09:20:34.099Z,97070.13
2024-05-09T09:23:22.893Z,97067.09
2024-05-09T09:26:11.193Z,97071.09
2024-05-09T09:29:00.784Z,97070.94
2024-05-09T09:31:49.382Z,97067.66
2024-05-09T09:34:37.984Z,97071.63
2024-05-09T09:37:31.696Z,97070.59
2024-05-09T09:40:22.399Z,97068.03
2024-05-09T09:43:16.742Z,97060.06
2024-05-09T09:46:03.462Z,97060.91
2024-05-09T09:48:52.288Z,97063.38
2024-05-09T09:51:43.689Z,97064.25
2024-05-09T09:54:32.478Z,97067.75
2024-05-09T09:57:19.826Z,97053.84
2024-05-09T10:00:11.875Z,97071.28
2024-05-09T10:03:00.538Z,97073.03
2024-05-09T10:05:49.653Z,97066.22
2024-05-09T10:08:38.262Z,97066.16
2024-05-09T10:11:26.810Z,97066.75
2024-05-09T10:14:12.430Z,97072.34
2024-05-09T10:17:07.926Z,97068.59
2024-05-09T10:20:11.849Z,97053.31
2024-05-09T10:23:07.228Z,97050.47
2024-05-09T10:25:59.858Z,97052.19
2024-05-09T10:28:48.620Z,97053.63
2024-05-09T10:31:39.293Z,97051.06
2024-05-09T10:34:37.305Z,97046.53
2024-05-09T10:37:23.284Z,97049.66
2024-05-09T10:40:26.109Z,97052.81
2024-05-09T10:43:25.092Z,97056.50
2024-05-09T10:46:11.599Z,97045.00
2024-05-09T10:49:04.199Z,97042.31
2024-05-09T10:51:53.516Z,97050.16
2024-05-09T10:54:41.988Z,97053.50
2024-05-09T10:57:38.123Z,97046.06
2024-05-09T11:00:36.138Z,97041.41
2024-05-09T11:03:23.685Z,97046.00
2024-05-09T11:06:13.875Z,97041.47
2024-05-09T11:08:59.581Z,97030.44
2024-05-09T11:11:47.871Z,97032.72
2024-05-09T11:14:33.840Z,97026.16
2024-05-09T11:17:24.725Z,97021.50
2024-05-09T11:20:13.801Z,97033.59
2024-05-09T11:23:08.512Z,97023.06
2024-05-09T11:25:54.985Z,97018.53
2024-05-09T11:28:46.852Z,97010.81
2024-05-09T11:31:32.952Z,97009.19
2024-05-09T11:34:23.987Z,97016.22
2024-05-09T11:37:10.513Z,97019.88
2024-05-09T11:39:59.059Z,97017.03
2024-05-09T11:42:47.708Z,97003.97
2024-05-09T11:45:37.267Z,96999.81
2024-05-09T11:48:23.336Z,96997.91
2024-05-09T11:51:14.298Z,96998.94
2024-05-09T11:54:00.163Z,96991.75
2024-05-09T11:56:48.727Z,96995.38
2024-05-09T11:59:37.522Z,96994.19
2024-05-09T12:02:23.393Z,97001.22
2024-05-09T12:05:11.942Z,97006.13
2024-05-09T12:08:00.978Z,96997.09
2024-05-09T12:10:49.850Z,96996.03
2024-05-09T12:13:35.626Z,96988.47
2024-05-09T12:16:24.580Z,96991.81
2024-05-09T12:19:10.821Z,96989.50
2024-05-09T12:21:59.333Z,96983.69
2024-05-09T12:24:47.755Z,96987.03
2024-05-09T12:27:37.352Z,96987.88
2024-05-09T12:30:32.790Z,96982.88
2024-05-09T12:33:26.141Z,96980.34
2024-05-09T12:36:11.958Z,96973.78
2024-05-09T12:39:00.879Z,96975.53
2024-05-09T12:41:49.096Z,96973.63
2024-05-09T12:44:37.663Z,96967.13
2024-05-09T12:47:23.790Z,96966.44
2024-05-09T12:50:21.859Z,96969.22
2024-05-09T12:53:11.020Z,96964.72
2024-05-09T12:56:02.362Z,96960.34
2024-05-09T12:58:52.063Z,96965.09
2024-05-09T13:01:40.820Z,96959.94
2024-05-09T13:04:27.045Z,96959.00
2024-05-09T13:07:15.451Z,96949.06
2024-05-09T13:10:01.318Z,96952.19
2024-05-09T13:12:49.777Z,96952.25
2024-05-09T13:15:38.849Z,96937.44
2024-05-09T13:18:27.711Z,96936.84
2024-05-09T13:21:13.189Z,96945.03
2024-05-09T13:24:01.799Z,96940.34
2024-05-09T13:26:47.829Z,96946.44
2024-05-09T13:29:36.451Z,96943.34
2024-05-09T13:32:25.145Z,96933.47
2024-05-09T13:35:13.777Z,96932.19
2024-05-09T13:38:01.264Z,96936.56
2024-05-09T13:40:50.442Z,96925.06
2024-05-09T13:43:39.056Z,96929.69
2024-05-09T13:46:25.185Z,96915.13
2024-05-09T13:49:17.423Z,96913.69
2024-05-09T13:52:03.381Z,96910.06
2024-05-09T13:54:51.877Z,96911.44
2024-05-09T13:57:40.647Z,96916.38
2024-05-09T14:00:38.000Z,96917.53
2024-05-09T14:03:33.035Z,96907.16
2024-05-09T14:06:21.633Z,96906.22
2024-05-09T14:09:10.111Z,96898.03
2024-05-09T14:11:56.001Z,96897.09
2024-05-09T14:14:44.654Z,96894.75
2024-05-09T14:17:30.663Z,96896.69
2024-05-09T14:20:27.936Z,96896.41
2024-05-09T14:23:20.177Z,96894.59
2024-05-09T14:26:08.820Z,96893.94
2024-05-09T14:28:54.816Z,96894.41
2024-05-09T14:31:43.530Z,96898.03
2024-05-09T14:34:30.396Z,96890.03
2024-05-09T14:37:18.570Z,96887.63
2024-05-09T14:40:14.694Z,96887.28
2024-05-09T14:43:09.685Z,96882.81
2024-05-09T14:45:56.119Z,96885.03
2024-05-09T14:48:44.684Z,96887.44
2024-05-09T14:51:30.473Z,96880.34
2024-05-09T14:54:19.060Z,96888.03
2024-05-09T14:57:07.551Z,96883.31
2024-05-09T14:59:56.062Z,96879.66
2024-05-09T15:02:42.085Z,96879.03
2024-05-09T15:05:30.673Z,96880.44
2024-05-09T15:08:17.586Z,96873.69
2024-05-09T15:11:06.736Z,96871.28
2024-05-09T15:13:55.024Z,96869.44
2024-05-09T15:16:43.584Z,96879.94
2024-05-09T15:19:31.029Z,96873.38
2024-05-09T15:22:20.058Z,96866.03
2024-05-09T15:25:06.878Z,96862.50
2024-05-09T15:27:55.270Z,96852.19
2024-05-09T15:30:47.074Z,96850.81
2024-05-09T15:33:32.989Z,96844.03
2024-05-09T15:36:21.423Z,96849.44
2024-05-09T15:39:07.287Z,96850.03
2024-05-09T15:41:56.470Z,96851.41
2024-05-09T15:44:42.019Z,96858.81
2024-05-09T15:47:38.005Z,96846.28
2024-05-09T15:50:35.119Z,96835.88
2024-05-09T15:53:27.780Z,96848.53
2024-05-09T15:56:13.771Z,96848.03
2024-05-09T15:59:02.317Z,96843.84
2024-05-09T16:01:48.295Z,96832.38
2024-05-09T16:04:39.584Z,96836.66
2024-05-09T16:07:25.171Z,96838.16
2024-05-09T16:10:20.125Z,96829.97
2024-05-09T16:13:11.436Z,96833.91
2024-05-09T16:15:59.994Z,96838.41
2024-05-09T16:18:45.818Z,96827.44
2024-05-09T16:21:37.241Z,96834.38
2024-05-09T16:24:23.175Z,96839.78
2024-05-09T16:27:11.746Z,96832.78
2024-05-09T16:29:58.277Z,96831.75
2024-05-09T16:32:48.780Z,96837.75
2024-05-09T16:35:35.284Z,96835.25
2024-05-09T16:38:26.611Z,96836.31
2024-05-09T16:41:13.362Z,96839.56
2024-05-09T16:44:01.930Z,96838.25
2024-05-09T16:46:47.941Z,96836.59
2024-05-09T16:49:36.239Z,96844.44
2024-05-09T16:52:22.181Z,96840.72
2024-05-09T16:55:13.436Z,96841.41
2024-05-09T16:57:59.473Z,96831.59
2024-05-09T17:00:48.134Z,96838.84
2024-05-09T17:03:34.236Z,96843.34
2024-05-09T17:06:22.806Z,96842.75
2024-05-09T17:09:11.880Z,96847.69
2024-05-09T17:12:06.806Z,96846.38
2024-05-09T17:14:55.359Z,96848.31
2024-05-09T17:17:43.608Z,96845.84
2024-05-09T17:20:35.329Z,96840.69
2024-05-09T17:23:23.610Z,96834.44
2024-05-09T17:26:12.113Z,96840.13
2024-05-09T17:29:00.767Z,96846.41
2024-05-09T17:31:49.335Z,96841.44
2024-05-09T17:34:35.308Z,96841.53
2024-05-09T17:37:23.991Z,96846.50
2024-05-09T17:40:16.964Z,96851.63
2024-05-09T17:43:03.739Z,96854.06
2024-05-09T17:45:55.409Z,96851.00
2024-05-09T17:48:41.563Z,96851.66
2024-05-09T17:51:30.185Z,96859.69
2024-05-09T17:54:16.462Z,96857.06
2024-05-09T17:57:05.184Z,96851.16
2024-05-09T17:59:54.026Z,96854.66
2024-05-09T18:02:42.899Z,96861.91
2024-05-09T18:05:32.080Z,96866.19
2024-05-09T18:08:18.124Z,96865.97
2024-05-09T18:11:06.876Z,96867.13
2024-05-09T18:13:54.326Z,96864.16
2024-05-09T18:16:42.717Z,96868.09
2024-05-09T18:19:31.470Z,96869.03
2024-05-09T18:22:19.978Z,96868.34
2024-05-09T18:25:06.293Z,96864.72
2024-05-09T18:27:54.908Z,96864.03
2024-05-09T18:30:40.902Z,96873.88
2024-05-09T18:33:29.464Z,96881.00
2024-05-09T18:36:20.362Z,96880.06
2024-05-09T18:39:06.660Z,96888.72
2024-05-09T18:41:55.373Z,96891.25
2024-05-09T18:44:40.826Z,96889.22
2024-05-09T18:47:29.556Z,96891.91
2024-05-09T18:50:24.590Z,96893.00
2024-05-09T18:53:22.721Z,96900.41
2024-05-09T18:56:08.538Z,96899.03
2024-05-09T18:58:56.942Z,96895.22
2024-05-09T19:01:42.913Z,96903.34
2024-05-09T19:04:31.535Z,96910.63
2024-05-09T19:07:19.335Z,96907.03
2024-05-09T19:10:21.978Z,96910.31
2024-05-09T19:13:13.451Z,96917.78
2024-05-09T19:16:03.328Z,96916.84
2024-05-09T19:18:51.453Z,96922.66
2024-05-09T19:21:42.601Z,96931.47
2024-05-09T19:24:28.316Z,96932.50
2024-05-09T19:27:19.088Z,96933.66
2024-05-09T19:30:13.909Z,96942.78
2024-05-09T19:33:06.863Z,96940.41
2024-05-09T19:35:52.968Z,96943.16
2024-05-09T19:38:41.554Z,96944.84
2024-05-09T19:41:29.933Z,96942.69
2024-05-09T19:44:18.931Z,96942.03
2024-05-09T19:47:07.589Z,96943.22
2024-05-09T19:49:53.226Z,96946.88
2024-05-09T19:52:42.034Z,96952.19
2024-05-09T19:55:27.955Z,96955.47
2024-05-09T19:58:16.135Z,96956.66
2024-05-09T20:01:05.104Z,96954.81
2024-05-09T20:03:56.819Z,96951.16
2024-05-09T20:06:42.631Z,96953.22
2024-05-09T20:09:31.025Z,96947.97
2024-05-09T20:12:19.121Z,96959.84
2024-05-09T20:15:05.927Z,96951.00
2024-05-09T20:17:57.003Z,96961.38
2024-05-09T20:20:44.676Z,96957.97
2024-05-09T20:23:33.809Z,96965.34
2024-05-09T20:26:19.753Z,96966.38
2024-05-09T20:29:08.320Z,96965.25
2024-05-09T20:31:54.216Z,96955.34
2024-05-09T20:34:50.297Z,96968.38
2024-05-09T20:37:36.042Z,96967.53
2024-05-09T20:40:29.302Z,96960.97
2024-05-09T20:43:19.676Z,96961.47
2024-05-09T20:46:08.321Z,96965.22
2024-05-09T20:48:56.344Z,96958.56
2024-05-09T20:51:47.291Z,96971.41
2024-05-09T20:54:33.210Z,96975.78
2024-05-09T20:57:21.839Z,96966.31
2024-05-09T21:00:14.992Z,96965.56
2024-05-09T21:03:07.589Z,96968.66
2024-05-09T21:05:53.642Z,96969.88
2024-05-09T21:08:44.529Z,96961.47
2024-05-09T21:11:30.201Z,96970.38
2024-05-09T21:14:18.840Z,96961.25
2024-05-09T21:17:04.876Z,96966.00
2024-05-09T21:19:53.238Z,96963.84
2024-05-09T21:22:38.926Z,96965.31
2024-05-09T21:25:30.286Z,96963.84
2024-05-09T21:28:16.358Z,96965.41
2024-05-09T21:31:04.885Z,96959.75
2024-05-09T21:33:51.046Z,96959.41
2024-05-09T21:36:39.749Z,96966.94
2024-05-09T21:39:25.355Z,96962.69
2024-05-09T21:42:16.675Z,96964.16
2024-05-09T21:45:02.921Z,96971.06
2024-05-09T21:47:51.555Z,96966.09
2024-05-09T21:50:41.041Z,96966.69
2024-05-09T21:53:30.596Z,96965.66
2024-05-09T21:56:16.441Z,96974.66
2024-05-09T21:59:07.591Z,96969.56
2024-05-09T22:01:53.701Z,96968.38
2024-05-09T22:04:42.192Z,96968.53
2024-05-09T22:07:28.076Z,96968.69
2024-05-09T22:10:25.392Z,96970.13
2024-05-09T22:13:12.837Z,96970.34
2024-05-09T22:16:05.178Z,96966.13
2024-05-09T22:18:51.068Z,96971.38
2024-05-09T22:21:39.490Z,96968.34
2024-05-09T22:24:25.452Z,96971.56
2024-05-09T22:27:14.053Z,96967.59
2024-05-09T22:29:59.998Z,96975.06
2024-05-09T22:32:50.713Z,96974.25
2024-05-09T22:35:36.405Z,96986.00
2024-05-09T22:38:25.053Z,96978.44
2024-05-09T22:41:11.172Z,96980.47
2024-05-09T22:44:01.498Z,96964.72
2024-05-09T22:46:47.124Z,96960.72
2024-05-09T22:49:38.571Z,96972.47
2024-05-09T22:52:27.156Z,96967.00
2024-05-09T22:55:12.956Z,96962.13
2024-05-09T22:58:01.383Z,96967.41
2024-05-09T23:00:47.435Z,96969.16
2024-05-09T23:03:36.109Z,96962.34
2024-05-09T23:06:24.426Z,96966.25
2024-05-09T23:09:13.056Z,96961.84
2024-05-09T23:11:59.052Z,96963.41
2024-05-09T23:14:47.315Z,96965.38
2024-05-09T23:17:33.128Z,96962.09
2024-05-09T23:20:30.089Z,96957.38
2024-05-09T23:23:27.722Z,96958.34
2024-05-09T23:26:13.628Z,96958.13
2024-05-09T23:29:02.288Z,96951.59
2024-05-09T23:31:48.323Z,96962.03
2024-05-09T23:34:36.657Z,96959.69
2024-05-09T23:37:22.565Z,96957.66
2024-05-09T23:40:18.674Z,96955.31
2024-05-09T23:43:05.262Z,96953.81
2024-05-09T23:45:53.562Z,96946.25
2024-05-09T23:48:39.627Z,96954.19
2024-05-09T23:51:27.530Z,96951.56
2024-05-09T23:54:13.435Z,96950.16
2024-05-09T23:57:05.799Z,96944.44
2024-05-09T23:59:51.631Z,96942.13
